• Join FlightAware (Why Join?)
  • Login
  • US Flag 
05:34AM EDT


 

Airport Tracker/Info


-or-


 

Live Flight TrackerFlight Track Log ✈ EJA929 ✈ 24-May-2013 ✈ KHPN - KIAD

Flight Track Log - Related Links

Times and Time Zones

All times are in EDT time to prevent confusion due to time zone crossing. See the EJA929 flight status page for this flight to view local times or setup timezone preferences in your user account.

Time Position Orientation Groundspeed Altitude Reporting Facility
EDT Latitude Longitude Course Direction KTS MPH feet Rate Location/Type
03:07PM 41.0833 -73.7833 255° West 212 244 4,600  Level New York TRACON
03:08PM 41.0667 -73.8667 255° West 246 283 6,900 1,200 Climbing New York TRACON
03:09PM 41.0333 -73.9500 242° Southwest 251 289 7,000 1,020 Climbing New York TRACON
03:10PM 41.0000 -74.0333 242° Southwest 267 307 9,000 2,340 Climbing New York TRACON
03:11PM 40.9667 -74.1167 242° Southwest 280 322 11,800 2,700 Climbing New York TRACON
03:12PM 40.9167 -74.2167 237° Southwest 313 360 14,400 2,160 Climbing New York TRACON
03:13PM 40.9000 -74.3167 258° West 336 387 16,000 840 Climbing New York TRACON
03:14PM 40.8667 -74.4500 252° West 357 411 16,000  Level New York TRACON
03:16PM 40.7925 -74.6853 247° West 394 453 16,000 -60 Level New York Center
03:17PM 40.7544 -74.8256 250° West 380 437 15,900  Descending New York Center
03:18PM 40.7186 -74.9575 250° West 380 437 16,000 300 Climbing New York Center
03:19PM 40.6761 -75.0944 248° West 391 450 16,600 1,200 Climbing New York Center
03:20PM 40.6242 -75.2058 238° Southwest 396 456 18,400 1,560 Climbing New York Center
03:21PM 40.5625 -75.3467 240° Southwest 401 461 19,800 780 Climbing New York Center
03:22PM 40.5056 -75.4686 238° Southwest 406 467 20,000 60 Climbing New York Center
03:23PM 40.4553 -75.5797 239° Southwest 394 453 20,000 -60 Level New York Center
03:24PM 40.4236 -75.6919 250° West 337 388 19,900  Descending New York Center
03:25PM 40.4228 -75.8064 269° West 315 362 20,000  Climbing New York Center
03:26PM 40.3894 -75.9050 246° West 313 360 19,900  Descending New York Center
03:27PM 40.3297 -75.9850 226° Southwest 301 346 20,000  Climbing New York Center
03:28PM 40.2739 -76.0650 228° Southwest 301 346 20,000 -480 Level New York Center
03:29PM 40.2094 -76.1581 228° Southwest 322 371 19,100 -1,020 Descending New York Center
03:30PM 40.1442 -76.2589 230° Southwest 366 421 18,000 -1,020 Descending New York Center
03:31PM 40.0917 -76.3550 234° Southwest 371 427 17,100 -1,200 Descending New York Center
03:32PM 40.0336 -76.4833 239° Southwest 376 433 15,700 -480 Descending New York Center
03:34PM 39.9326 -76.6569 241° Southwest  Level FlightAware Approximate
03:35PM 39.8500 -76.8833 241° Southwest 386 444 15,000  Level Potomac TRACON
03:36PM 39.8000 -76.9833 237° Southwest 342 394 15,000 -1,020 Level Potomac TRACON
03:38PM 39.7167 -77.1667 239° Southwest 293 337 12,100 -1,500 Descending Potomac TRACON
03:39PM 39.6667 -77.2500 232° Southwest 288 331 10,500 -1,800 Descending Potomac TRACON
03:40PM 39.6167 -77.3333 232° Southwest 295 339 8,500 -1,860 Descending Potomac TRACON
03:41PM 39.5333 -77.3500 189° South 300 345 6,800 -1,500 Descending Potomac TRACON
03:42PM 39.4500 -77.3500 180° South 299 344 5,500 -900 Descending Potomac TRACON
03:43PM 39.3667 -77.3667 189° South 291 335 5,000 -420 Descending Potomac TRACON
03:45PM 39.2483 -77.3500 180° South  Level FlightAware Approximate
03:46PM 39.1333 -77.3667 345° North 274 315 4,000  Level Potomac TRACON
03:47PM 39.0667 -77.3500 169° South 277 319 4,000 -240 Level Potomac TRACON
03:48PM 38.9833 -77.3667 189° South 244 281 3,600 -480 Descending Potomac TRACON
03:49PM 38.9167 -77.3500 169° South 245 282 3,100 -300 Descending Potomac TRACON
03:50PM 38.8500 -77.3667 191° South 240 276 3,000 -240 Descending Potomac TRACON
03:51PM 38.7833 -77.3667 180° South 245 282 2,700 -420 Descending Potomac TRACON
03:52PM 38.9474 -77.4599 345° North  Level Estimated
03:52PM 38.7167 -77.3667 180° South 239 275 2,200  Level Potomac TRACON
03:53PM 38.7333 -77.4167 293° West 146 168 2,000 -120 Descending Potomac TRACON
03:54PM 38.7667 -77.4333 339° North 149 171 2,000  Level Potomac TRACON
03:55PM 38.8167 -77.4333 360° North 153 176 2,000 -60 Level Potomac TRACON
03:56PM 38.8500 -77.4333 360° North 139 160 1,900 -120 Descending Potomac TRACON